Airfield :
LOGIN :

Register | Disclaimer

   EN    FR    IT 

 










Legend :    VFR   Marginal VFR   IFR   Intensive IFR   Very Intensive IFR
Visi :
Ceiling :
>= 8 km
>= 3000ft
5 to 8 km
1000 to 3000 ft
1500m to 5 km
500 to 1000 ft
800 to 1500m
200 to 500 ft
< 800m
< 200 ft
Symbols :   Thunderstorms  Fog  Heavy snow  Heavy precipitations  Wind > 20 kt
SIGMETs :     Misc.  Thunderstorms  Icing  Turbulence  Mountain Waves  Volcanic Ashes







- Airport Elevation : 485 ft
- IATA code : QSA


LELL - Sabadell

CURRENT METAR :
  • 262300Z AUTO VRB01KT 9999 BKN034/// 11/09 Q1012

EXPIRED METARs :
  • 262230Z AUTO VRB01KT 9999 OVC034/// 11/09 Q1012
  • 262200Z AUTO VRB01KT 9999 OVC034/// 11/10 Q1012
  • 262130Z AUTO VRB01KT 9999 -SHRA FEW019/// OVC034/// ///TCU 11/09 Q1012
  • 262100Z AUTO VRB02KT 9999 -SHRA BKN017/// OVC034/// ///TCU 11/09 Q1012
  • 262030Z AUTO VRB02KT 9999 -SHRA OVC033/// ///TCU 12/09 Q1012

TAF TAF LELL
Valid from the 26 at 15:00 until the 27 at 15:00 UTC


261400Z 2615/2715 VRB04KT 9999 SCT010 BKN020 TX12/2713Z TN06/2706Z
TEMPO 2615/2618 15007KT
PROB30
TEMPO 2615/2715 3000 SHRA BKN012 FEW020TCU
TEMPO 2621/2715 4000 RA BKN009
No reported NOTAMs for that airfield.



MET'MAP, your aeronautical weather chart ! - Copyright ORBIFLY December 2007 - Disclaimer

ORBIFLY MET'MAP TEAM :

Programming & Development : Alexandra Zaïnal
Concept & Development : Baudouin d'Aumeries
Co-Development & Prog : Marc-Olivier Méhu
Technical & hardware support : Manuel Goepfert

Contact : metmap@orbifly.com




SOURCES & CREDITS :

   NOAA